Berlin, NY (12022)

1:24 AM EDT on March 31, 2015 (GMT -0400)
APRSWXNET | | Change Station
CLOSE
Current Station
Personal Weather Station
Location: Petersburgh, NY
Elevation: 1650 ft
Nearby Weather Stations

Elev 1650 ft 42.73 °N, 73.41 °W | Updated 37 minutes ago

Overcast
Overcast
31 °F
Feels Like 31 °F
N
2
Wind Variable Wind from SE
Gusts 7.0 mph

Today
High -- | Low -- °F
--% Chance of Precip.
Yesterday
High -- | Low -- °F
Precip. -- in
6:37 AM 7:18 PM
Waxing Gibbous, 84% visible
Pressure 29.76 in
Visibility 10.0 miles
Clouds Few 3200 ft
Scattered Clouds 3900 ft
Mostly Cloudy 7500 ft
Windchill 31 °F
Dew Point 28 °F
Humidity 87%
Rainfall in
Snow Depth Not available.
UV 0 out of 12
Pollen 3.20 out of 12
Air Quality Not available.
Flu Activity Not available.
METAR KAQW 310452Z AUTO 27013G22KT 10SM FEW032 SCT039 BKN075 03/M03 A2975 RMK AO2 SLP078 T00281028 400501028

More Conditions Fewer Conditions

Pressure 29.76 in
Visibility 10.0 miles
Clouds Few 3200 ft
Scattered Clouds 3900 ft
Mostly Cloudy 7500 ft
Windchill 31 °F
Dew Point 28 °F
Humidity 87%
Rainfall in
Snow Depth Not available.
UV 0 out of 12
Pollen 3.20 out of 12
Air Quality Not available.
Flu Activity Not available.
METAR KAQW 310452Z AUTO 27013G22KT 10SM FEW032 SCT039 BKN075 03/M03 A2975 RMK AO2 SLP078 T00281028 400501028

More Conditions Fewer Conditions

10-Day Weather Forecast

Almanac

Astronomy

Mar. 31, 2015 Rise Set
Actual Time
Civil Twilight
Nautical Twilight
Astronomical Twilight
Moon
Length of Visible Light
Length of Day
Tomorrow will be .
, % of the Moon is Illuminated

Today's Extremes

State Highs State Lows

Community

WunderPhotos

Upload Photos

1,809,722 photos uploaded!

WunderBlogs® & News

Nearby

Air Quality

  Air Quality AQ Index Pollutant
Not available.

Snow Depth

Station Depth Elevation

Earthquake Activity

City Distance Mag. Time & Date
Minimum magnitude displayed is 2.5.

Coastal Water Temperatures

Place Temperature

Stations

Nearby Weather Stations

Station Location Temp. Windchill Dew Point Humidity Wind Precip. Elev Updated Type